TAF and METAR

METAR for Hanan International Airport

NIUE 141500Z 05003KT 9999 SCT018 BKN030 BKN100 24/23 Q1009
Report created 14. des 16:00
wind 3 knots from NE (050°) visibility > 10km scattered clouds (~50% cover) at 1800 feet broken clouds (~75% cover) at 3000 feet broken clouds (~75% cover) at 10000 feet Temperature 24° with dewpoint at 23° (Humidity 94.16%) Pressure 1009 hPa

TAF for Hanan International Airport

TAF NIUE 141039Z 1412/1512 08005KT 9999 -RA SCT008 BKN020 BKN040 TEMPO 1412/1512 3000 TSRA SCT008 BKN015 FEW018CB
Report created 14. des 11:39

between 14. des 13:00 - 15. des 13:00

wind 5 knots from E (080°) visibility > 10km light rain scattered clouds (~50% cover) at 800 feet broken clouds (~75% cover) at 2000 feet broken clouds (~75% cover) at 4000 feet

temporarily between 14. des 13:00 - 15. des 13:00

visibility 3000 meters thunderstorm and rain scattered clouds (~50% cover) at 800 feet broken clouds (~75% cover) at 1500 feet some clouds (~25% cover) at 1800 feet of type cumulonimbus
Hanan International Airport in Niue at 20m

Latest 5 airports